首页
METAR-TAF:

METAR-TAF

机场 :

伦敦斯坦斯特德机场

坦斯特德機場, 英格兰

纬度: 51-53N, 经度: 000-14E, 海拔: 106米

当前天气观测

该预报发布于32分钟前的04:20 UTC
风速4节,风向西南
温度 -3°C
湿度 100%
气压 1016 hPa
能見度: 6000

METAR: EGSS 190420Z 22004KT 6000 NSC M03/M03 Q1016

时间: 04:52 (04:52 UTC)

预报

该预报发布于5小时和55分钟前的22:57 UTC
预报有效从19日的 00点(UTC)到 20日的 06点(UTC)
风速4节,风向多变
能见度10公里或以上
少量云层高于3000英尺
成为
从 19日的 00点(UTC)到 19日的 03点(UTC)
能見度: 7000
几率 40%
从 19日的 03点(UTC)到 19日的 10点(UTC)
能見度: 0300
冻雾
成为
从 19日的 10点(UTC)到 19日的 13点(UTC)
能见度10公里或以上
几率 30% :
短暂存在
从 19日的 10点(UTC)到 19日的 12点(UTC)
能見度: 3000
多云层高于400英尺
轻雾
成为
从 19日的 12点(UTC)到 19日的 15点(UTC)
风速10节,风向东南
几率 40% :
短暂存在
从 19日的 13点(UTC)到 20日的 06点(UTC)
能見度: 8000

TAF: EGSS 182257Z 1900/2006 VRB04KT 9999 FEW030 BECMG 1900/1903 7000 PROB40 1903/1910 0300 FZFG VV/// BECMG 1910/1913 9999 PROB30 TEMPO 1910/1912 3000 BR BKN004 BECMG 1912/1915 14010KT PROB40 TEMPO 1913/2006 8000

超过4000个机场的气象观测和天气预报(METAR&TAF报告)。

可查询的气象台以黄色和红色小点在地图上表示。

将鼠标移到小点上方,可查看气象台名称。

然后点击查看天气观测和预报。

如需切换地图:点击带黑十字的绿色按钮放大地图;点击带横线的绿色按钮缩小地图;或者点击绿色箭头查看邻近地区的地图。


METAR-TAF: